sensor_id;sensor_type;location;lat;lon;timestamp;P1;durP1;ratioP1;P2;durP2;ratioP2
66272;SDS011;58450;52.150;4.466;2023-09-19T00:00:26;8.55;;;1.63;;
66272;SDS011;58450;52.150;4.466;2023-09-19T00:02:54;6.18;;;1.58;;
66272;SDS011;58450;52.150;4.466;2023-09-19T00:05:25;7.15;;;1.77;;
66272;SDS011;58450;52.150;4.466;2023-09-19T00:07:54;8.18;;;1.80;;
66272;SDS011;58450;52.150;4.466;2023-09-19T00:10:24;7.32;;;1.50;;
66272;SDS011;58450;52.150;4.466;2023-09-19T00:12:53;7.82;;;1.98;;
66272;SDS011;58450;52.150;4.466;2023-09-19T00:15:23;6.90;;;1.60;;
66272;SDS011;58450;52.150;4.466;2023-09-19T00:17:54;7.70;;;1.88;;
66272;SDS011;58450;52.150;4.466;2023-09-19T00:20:22;5.25;;;1.35;;
66272;SDS011;58450;52.150;4.466;2023-09-19T00:22:50;6.70;;;1.60;;
66272;SDS011;58450;52.150;4.466;2023-09-19T00:25:19;8.35;;;1.80;;
66272;SDS011;58450;52.150;4.466;2023-09-19T00:27:47;6.63;;;1.63;;
66272;SDS011;58450;52.150;4.466;2023-09-19T00:30:17;6.05;;;1.30;;
66272;SDS011;58450;52.150;4.466;2023-09-19T00:32:48;7.25;;;1.70;;
66272;SDS011;58450;52.150;4.466;2023-09-19T00:35:20;5.77;;;1.50;;
66272;SDS011;58450;52.150;4.466;2023-09-19T00:37:49;6.40;;;1.60;;
66272;SDS011;58450;52.150;4.466;2023-09-19T00:40:18;6.65;;;1.70;;
66272;SDS011;58450;52.150;4.466;2023-09-19T00:42:47;5.68;;;1.95;;
66272;SDS011;58450;52.150;4.466;2023-09-19T00:45:16;6.72;;;1.60;;
66272;SDS011;58450;52.150;4.466;2023-09-19T00:47:47;6.28;;;1.63;;
66272;SDS011;58450;52.150;4.466;2023-09-19T00:50:18;7.85;;;1.58;;
66272;SDS011;58450;52.150;4.466;2023-09-19T00:52:49;8.10;;;1.70;;
66272;SDS011;58450;52.150;4.466;2023-09-19T00:55:21;6.25;;;2.00;;
66272;SDS011;58450;52.150;4.466;2023-09-19T00:57:51;9.25;;;2.13;;
66272;SDS011;58450;52.150;4.466;2023-09-19T01:00:20;7.55;;;1.90;;
66272;SDS011;58450;52.150;4.466;2023-09-19T01:02:50;9.60;;;2.03;;
66272;SDS011;58450;52.150;4.466;2023-09-19T01:05:18;9.60;;;2.13;;
66272;SDS011;58450;52.150;4.466;2023-09-19T01:07:45;10.35;;;1.98;;
66272;SDS011;58450;52.150;4.466;2023-09-19T01:10:15;8.48;;;1.90;;
66272;SDS011;58450;52.150;4.466;2023-09-19T01:12:48;9.95;;;2.20;;
66272;SDS011;58450;52.150;4.466;2023-09-19T01:15:32;9.95;;;2.10;;
66272;SDS011;58450;52.150;4.466;2023-09-19T01:18:20;10.65;;;1.98;;
66272;SDS011;58450;52.150;4.466;2023-09-19T01:21:00;9.93;;;2.50;;
66272;SDS011;58450;52.150;4.466;2023-09-19T01:23:42;12.82;;;1.90;;
66272;SDS011;58450;52.150;4.466;2023-09-19T01:29:52;9.45;;;2.03;;
66272;SDS011;58450;52.150;4.466;2023-09-19T01:32:28;6.53;;;1.75;;
66272;SDS011;58450;52.150;4.466;2023-09-19T01:34:59;7.93;;;2.00;;
66272;SDS011;58450;52.150;4.466;2023-09-19T01:37:29;8.88;;;2.10;;
66272;SDS011;58450;52.150;4.466;2023-09-19T01:39:58;9.52;;;1.92;;
66272;SDS011;58450;52.150;4.466;2023-09-19T01:42:43;11.98;;;2.50;;
66272;SDS011;58450;52.150;4.466;2023-09-19T01:45:26;8.25;;;1.92;;
66272;SDS011;58450;52.150;4.466;2023-09-19T01:48:05;8.45;;;2.17;;
66272;SDS011;58450;52.150;4.466;2023-09-19T01:50:48;12.23;;;1.88;;
66272;SDS011;58450;52.150;4.466;2023-09-19T01:53:26;11.65;;;2.25;;
66272;SDS011;58450;52.150;4.466;2023-09-19T01:56:00;8.18;;;1.92;;
66272;SDS011;58450;52.150;4.466;2023-09-19T01:58:32;7.80;;;1.80;;
66272;SDS011;58450;52.150;4.466;2023-09-19T02:01:10;6.72;;;1.73;;
66272;SDS011;58450;52.150;4.466;2023-09-19T02:03:44;6.13;;;1.50;;
66272;SDS011;58450;52.150;4.466;2023-09-19T02:06:15;10.07;;;2.05;;
66272;SDS011;58450;52.150;4.466;2023-09-19T02:08:43;8.50;;;2.38;;
66272;SDS011;58450;52.150;4.466;2023-09-19T02:11:12;9.85;;;1.92;;
66272;SDS011;58450;52.150;4.466;2023-09-19T02:13:40;10.77;;;2.30;;
66272;SDS011;58450;52.150;4.466;2023-09-19T02:16:09;7.22;;;1.70;;
66272;SDS011;58450;52.150;4.466;2023-09-19T02:18:38;7.43;;;1.58;;
66272;SDS011;58450;52.150;4.466;2023-09-19T02:21:06;9.00;;;2.22;;
66272;SDS011;58450;52.150;4.466;2023-09-19T02:23:35;7.75;;;1.88;;
66272;SDS011;58450;52.150;4.466;2023-09-19T02:26:04;8.93;;;2.13;;
66272;SDS011;58450;52.150;4.466;2023-09-19T02:28:31;9.50;;;2.10;;
66272;SDS011;58450;52.150;4.466;2023-09-19T02:30:59;8.27;;;1.90;;
66272;SDS011;58450;52.150;4.466;2023-09-19T02:33:29;10.60;;;2.10;;
66272;SDS011;58450;52.150;4.466;2023-09-19T02:35:58;7.90;;;2.22;;
66272;SDS011;58450;52.150;4.466;2023-09-19T02:38:26;8.95;;;2.03;;
66272;SDS011;58450;52.150;4.466;2023-09-19T02:40:54;6.22;;;1.83;;
66272;SDS011;58450;52.150;4.466;2023-09-19T02:43:22;6.82;;;1.65;;
66272;SDS011;58450;52.150;4.466;2023-09-19T02:45:50;7.22;;;1.60;;
66272;SDS011;58450;52.150;4.466;2023-09-19T02:48:19;6.90;;;1.80;;
66272;SDS011;58450;52.150;4.466;2023-09-19T02:50:50;5.30;;;1.45;;
66272;SDS011;58450;52.150;4.466;2023-09-19T02:53:18;7.93;;;1.80;;
66272;SDS011;58450;52.150;4.466;2023-09-19T02:55:46;7.32;;;1.55;;
66272;SDS011;58450;52.150;4.466;2023-09-19T02:58:14;8.15;;;2.00;;
66272;SDS011;58450;52.150;4.466;2023-09-19T03:00:41;6.45;;;1.55;;
66272;SDS011;58450;52.150;4.466;2023-09-19T03:03:13;6.18;;;1.60;;
66272;SDS011;58450;52.150;4.466;2023-09-19T03:05:42;5.25;;;1.58;;
66272;SDS011;58450;52.150;4.466;2023-09-19T03:08:14;8.55;;;1.90;;
66272;SDS011;58450;52.150;4.466;2023-09-19T03:10:42;7.82;;;1.75;;
66272;SDS011;58450;52.150;4.466;2023-09-19T03:13:13;7.65;;;1.88;;
66272;SDS011;58450;52.150;4.466;2023-09-19T03:15:41;7.75;;;1.60;;
66272;SDS011;58450;52.150;4.466;2023-09-19T03:18:12;7.38;;;1.95;;
66272;SDS011;58450;52.150;4.466;2023-09-19T03:20:40;8.48;;;1.92;;
66272;SDS011;58450;52.150;4.466;2023-09-19T03:23:07;10.13;;;1.60;;
66272;SDS011;58450;52.150;4.466;2023-09-19T03:25:37;8.18;;;2.05;;
66272;SDS011;58450;52.150;4.466;2023-09-19T03:28:05;9.70;;;1.75;;
66272;SDS011;58450;52.150;4.466;2023-09-19T03:30:33;8.18;;;1.73;;
66272;SDS011;58450;52.150;4.466;2023-09-19T03:33:00;8.73;;;1.60;;
66272;SDS011;58450;52.150;4.466;2023-09-19T03:35:29;8.43;;;1.90;;
66272;SDS011;58450;52.150;4.466;2023-09-19T03:37:56;6.50;;;1.55;;
66272;SDS011;58450;52.150;4.466;2023-09-19T03:40:24;6.68;;;1.55;;
66272;SDS011;58450;52.150;4.466;2023-09-19T03:42:53;6.03;;;1.38;;
66272;SDS011;58450;52.150;4.466;2023-09-19T03:45:20;8.32;;;1.70;;
66272;SDS011;58450;52.150;4.466;2023-09-19T03:47:48;5.80;;;1.45;;
66272;SDS011;58450;52.150;4.466;2023-09-19T03:50:15;8.05;;;1.67;;
66272;SDS011;58450;52.150;4.466;2023-09-19T03:52:43;7.47;;;1.42;;
66272;SDS011;58450;52.150;4.466;2023-09-19T03:55:11;7.65;;;1.55;;
66272;SDS011;58450;52.150;4.466;2023-09-19T03:57:39;5.82;;;1.33;;
66272;SDS011;58450;52.150;4.466;2023-09-19T04:00:08;7.63;;;1.90;;
66272;SDS011;58450;52.150;4.466;2023-09-19T04:02:40;7.22;;;1.77;;
66272;SDS011;58450;52.150;4.466;2023-09-19T04:05:08;7.00;;;1.75;;
66272;SDS011;58450;52.150;4.466;2023-09-19T04:07:36;7.82;;;1.77;;
66272;SDS011;58450;52.150;4.466;2023-09-19T04:10:04;8.23;;;1.73;;
66272;SDS011;58450;52.150;4.466;2023-09-19T04:12:34;5.35;;;1.33;;
66272;SDS011;58450;52.150;4.466;2023-09-19T04:15:02;9.80;;;2.00;;
66272;SDS011;58450;52.150;4.466;2023-09-19T04:17:31;7.65;;;1.73;;
66272;SDS011;58450;52.150;4.466;2023-09-19T04:19:59;10.02;;;1.80;;
66272;SDS011;58450;52.150;4.466;2023-09-19T04:22:26;9.80;;;1.77;;
66272;SDS011;58450;52.150;4.466;2023-09-19T04:24:54;8.82;;;2.08;;
66272;SDS011;58450;52.150;4.466;2023-09-19T04:27:22;10.02;;;1.40;;
66272;SDS011;58450;52.150;4.466;2023-09-19T04:29:50;5.60;;;1.48;;
66272;SDS011;58450;52.150;4.466;2023-09-19T04:32:18;7.88;;;1.70;;
66272;SDS011;58450;52.150;4.466;2023-09-19T04:34:48;6.38;;;2.15;;
66272;SDS011;58450;52.150;4.466;2023-09-19T04:37:17;8.90;;;1.63;;
66272;SDS011;58450;52.150;4.466;2023-09-19T04:39:44;6.05;;;1.63;;
66272;SDS011;58450;52.150;4.466;2023-09-19T04:42:12;6.47;;;1.67;;
66272;SDS011;58450;52.150;4.466;2023-09-19T04:44:41;8.07;;;1.80;;
66272;SDS011;58450;52.150;4.466;2023-09-19T04:47:08;6.53;;;1.58;;
66272;SDS011;58450;52.150;4.466;2023-09-19T04:49:37;7.05;;;1.70;;
66272;SDS011;58450;52.150;4.466;2023-09-19T04:52:07;6.78;;;1.40;;
66272;SDS011;58450;52.150;4.466;2023-09-19T04:58:07;7.45;;;1.70;;
66272;SDS011;58450;52.150;4.466;2023-09-19T05:00:34;5.07;;;1.50;;
66272;SDS011;58450;52.150;4.466;2023-09-19T05:03:02;6.75;;;1.80;;
66272;SDS011;58450;52.150;4.466;2023-09-19T05:05:31;10.40;;;1.77;;
66272;SDS011;58450;52.150;4.466;2023-09-19T05:08:02;9.60;;;1.63;;
66272;SDS011;58450;52.150;4.466;2023-09-19T05:10:31;6.97;;;1.60;;
66272;SDS011;58450;52.150;4.466;2023-09-19T05:12:58;9.05;;;2.10;;
66272;SDS011;58450;52.150;4.466;2023-09-19T05:15:26;8.68;;;1.95;;
66272;SDS011;58450;52.150;4.466;2023-09-19T05:17:54;8.63;;;2.10;;
66272;SDS011;58450;52.150;4.466;2023-09-19T05:20:21;6.35;;;1.90;;
66272;SDS011;58450;52.150;4.466;2023-09-19T05:22:58;9.20;;;1.90;;
66272;SDS011;58450;52.150;4.466;2023-09-19T05:25:29;9.13;;;2.00;;
66272;SDS011;58450;52.150;4.466;2023-09-19T05:27:58;10.30;;;1.80;;
66272;SDS011;58450;52.150;4.466;2023-09-19T05:30:26;9.05;;;2.13;;
66272;SDS011;58450;52.150;4.466;2023-09-19T05:32:54;9.48;;;2.03;;
66272;SDS011;58450;52.150;4.466;2023-09-19T05:35:22;8.07;;;1.80;;
66272;SDS011;58450;52.150;4.466;2023-09-19T05:37:51;7.32;;;1.80;;
66272;SDS011;58450;52.150;4.466;2023-09-19T05:40:21;8.73;;;1.92;;
66272;SDS011;58450;52.150;4.466;2023-09-19T05:42:51;8.02;;;1.90;;
66272;SDS011;58450;52.150;4.466;2023-09-19T05:45:18;10.30;;;2.33;;
66272;SDS011;58450;52.150;4.466;2023-09-19T05:47:48;7.63;;;1.92;;
66272;SDS011;58450;52.150;4.466;2023-09-19T05:50:16;9.15;;;1.90;;
66272;SDS011;58450;52.150;4.466;2023-09-19T05:52:51;10.50;;;2.72;;
66272;SDS011;58450;52.150;4.466;2023-09-19T05:55:19;10.80;;;2.03;;
66272;SDS011;58450;52.150;4.466;2023-09-19T05:57:49;8.27;;;2.10;;
66272;SDS011;58450;52.150;4.466;2023-09-19T06:00:19;12.43;;;2.13;;
66272;SDS011;58450;52.150;4.466;2023-09-19T06:02:49;11.52;;;2.33;;
66272;SDS011;58450;52.150;4.466;2023-09-19T06:05:18;12.25;;;2.05;;
66272;SDS011;58450;52.150;4.466;2023-09-19T06:07:46;9.32;;;2.20;;
66272;SDS011;58450;52.150;4.466;2023-09-19T06:10:13;11.18;;;2.15;;
66272;SDS011;58450;52.150;4.466;2023-09-19T06:12:41;11.93;;;2.42;;
66272;SDS011;58450;52.150;4.466;2023-09-19T06:15:10;12.27;;;2.33;;
66272;SDS011;58450;52.150;4.466;2023-09-19T06:17:42;9.27;;;2.00;;
66272;SDS011;58450;52.150;4.466;2023-09-19T06:20:13;10.32;;;2.22;;
66272;SDS011;58450;52.150;4.466;2023-09-19T06:22:41;11.40;;;2.40;;
66272;SDS011;58450;52.150;4.466;2023-09-19T06:25:11;10.50;;;2.30;;
66272;SDS011;58450;52.150;4.466;2023-09-19T06:27:45;14.05;;;2.88;;
66272;SDS011;58450;52.150;4.466;2023-09-19T06:30:12;10.48;;;2.20;;
66272;SDS011;58450;52.150;4.466;2023-09-19T06:32:40;9.60;;;2.13;;
66272;SDS011;58450;52.150;4.466;2023-09-19T06:35:10;12.85;;;2.45;;
66272;SDS011;58450;52.150;4.466;2023-09-19T06:37:39;10.50;;;2.42;;
66272;SDS011;58450;52.150;4.466;2023-09-19T06:40:08;9.48;;;2.28;;
66272;SDS011;58450;52.150;4.466;2023-09-19T06:42:40;9.27;;;2.28;;
66272;SDS011;58450;52.150;4.466;2023-09-19T06:45:08;10.90;;;2.42;;
66272;SDS011;58450;52.150;4.466;2023-09-19T06:47:39;11.23;;;2.80;;
66272;SDS011;58450;52.150;4.466;2023-09-19T06:50:08;12.18;;;2.40;;
66272;SDS011;58450;52.150;4.466;2023-09-19T06:52:39;11.98;;;2.60;;
66272;SDS011;58450;52.150;4.466;2023-09-19T06:55:07;11.00;;;2.55;;
66272;SDS011;58450;52.150;4.466;2023-09-19T06:57:37;12.57;;;2.30;;
66272;SDS011;58450;52.150;4.466;2023-09-19T07:00:06;8.85;;;2.15;;
66272;SDS011;58450;52.150;4.466;2023-09-19T07:02:41;7.70;;;1.85;;
66272;SDS011;58450;52.150;4.466;2023-09-19T07:05:10;8.77;;;2.30;;
66272;SDS011;58450;52.150;4.466;2023-09-19T07:07:38;11.35;;;2.58;;
66272;SDS011;58450;52.150;4.466;2023-09-19T07:10:06;14.32;;;2.45;;
66272;SDS011;58450;52.150;4.466;2023-09-19T07:12:36;12.13;;;2.20;;
66272;SDS011;58450;52.150;4.466;2023-09-19T07:15:04;8.90;;;1.95;;
66272;SDS011;58450;52.150;4.466;2023-09-19T07:17:33;9.85;;;2.47;;
66272;SDS011;58450;52.150;4.466;2023-09-19T07:20:00;11.77;;;2.53;;
66272;SDS011;58450;52.150;4.466;2023-09-19T07:22:34;8.65;;;2.15;;
66272;SDS011;58450;52.150;4.466;2023-09-19T07:25:05;9.30;;;2.20;;
66272;SDS011;58450;52.150;4.466;2023-09-19T07:27:33;9.00;;;2.38;;
66272;SDS011;58450;52.150;4.466;2023-09-19T07:30:01;10.13;;;2.40;;
66272;SDS011;58450;52.150;4.466;2023-09-19T07:32:29;9.07;;;2.15;;
66272;SDS011;58450;52.150;4.466;2023-09-19T07:34:56;9.65;;;2.53;;
66272;SDS011;58450;52.150;4.466;2023-09-19T07:37:24;9.80;;;2.20;;
66272;SDS011;58450;52.150;4.466;2023-09-19T07:39:53;12.50;;;2.63;;
66272;SDS011;58450;52.150;4.466;2023-09-19T07:42:21;10.40;;;2.50;;
66272;SDS011;58450;52.150;4.466;2023-09-19T07:44:49;12.18;;;2.50;;
66272;SDS011;58450;52.150;4.466;2023-09-19T07:47:16;13.23;;;2.58;;
66272;SDS011;58450;52.150;4.466;2023-09-19T07:49:47;12.05;;;2.50;;
66272;SDS011;58450;52.150;4.466;2023-09-19T07:52:14;12.57;;;2.70;;
66272;SDS011;58450;52.150;4.466;2023-09-19T07:54:42;14.85;;;2.53;;
66272;SDS011;58450;52.150;4.466;2023-09-19T07:57:11;10.15;;;2.65;;
66272;SDS011;58450;52.150;4.466;2023-09-19T07:59:41;11.88;;;2.70;;
66272;SDS011;58450;52.150;4.466;2023-09-19T08:02:09;8.68;;;2.13;;
66272;SDS011;58450;52.150;4.466;2023-09-19T08:04:41;11.75;;;2.63;;
66272;SDS011;58450;52.150;4.466;2023-09-19T08:07:09;11.65;;;2.80;;
66272;SDS011;58450;52.150;4.466;2023-09-19T08:09:36;10.18;;;2.60;;
66272;SDS011;58450;52.150;4.466;2023-09-19T08:12:04;10.60;;;2.85;;
66272;SDS011;58450;52.150;4.466;2023-09-19T08:14:35;10.68;;;2.80;;
66272;SDS011;58450;52.150;4.466;2023-09-19T08:17:03;11.85;;;2.63;;
66272;SDS011;58450;52.150;4.466;2023-09-19T08:19:31;12.77;;;2.60;;
66272;SDS011;58450;52.150;4.466;2023-09-19T08:21:58;12.10;;;2.67;;
66272;SDS011;58450;52.150;4.466;2023-09-19T08:24:27;13.43;;;2.58;;
66272;SDS011;58450;52.150;4.466;2023-09-19T08:26:56;12.18;;;2.55;;
66272;SDS011;58450;52.150;4.466;2023-09-19T08:29:24;10.75;;;2.60;;
66272;SDS011;58450;52.150;4.466;2023-09-19T08:31:55;13.95;;;2.72;;
66272;SDS011;58450;52.150;4.466;2023-09-19T08:34:23;13.15;;;2.70;;
66272;SDS011;58450;52.150;4.466;2023-09-19T08:36:52;8.23;;;2.20;;
66272;SDS011;58450;52.150;4.466;2023-09-19T08:39:22;11.95;;;2.83;;
66272;SDS011;58450;52.150;4.466;2023-09-19T08:41:51;11.15;;;2.53;;
66272;SDS011;58450;52.150;4.466;2023-09-19T08:44:25;12.10;;;2.53;;
66272;SDS011;58450;52.150;4.466;2023-09-19T08:46:55;13.45;;;2.70;;
66272;SDS011;58450;52.150;4.466;2023-09-19T08:49:40;12.00;;;2.65;;
66272;SDS011;58450;52.150;4.466;2023-09-19T08:52:20;15.38;;;3.22;;
66272;SDS011;58450;52.150;4.466;2023-09-19T08:54:55;8.82;;;2.22;;
66272;SDS011;58450;52.150;4.466;2023-09-19T08:57:30;15.52;;;2.95;;
66272;SDS011;58450;52.150;4.466;2023-09-19T09:00:03;11.80;;;2.80;;
66272;SDS011;58450;52.150;4.466;2023-09-19T09:02:37;10.80;;;2.40;;
66272;SDS011;58450;52.150;4.466;2023-09-19T09:05:07;10.45;;;3.10;;
66272;SDS011;58450;52.150;4.466;2023-09-19T09:07:36;11.40;;;2.58;;
66272;SDS011;58450;52.150;4.466;2023-09-19T09:10:06;12.00;;;2.65;;
66272;SDS011;58450;52.150;4.466;2023-09-19T09:12:35;9.63;;;2.38;;
66272;SDS011;58450;52.150;4.466;2023-09-19T09:15:05;11.82;;;2.67;;
66272;SDS011;58450;52.150;4.466;2023-09-19T09:17:34;11.52;;;2.60;;
66272;SDS011;58450;52.150;4.466;2023-09-19T09:20:04;12.35;;;2.80;;
66272;SDS011;58450;52.150;4.466;2023-09-19T09:22:34;11.77;;;2.50;;
66272;SDS011;58450;52.150;4.466;2023-09-19T09:25:02;11.57;;;3.10;;
66272;SDS011;58450;52.150;4.466;2023-09-19T09:27:30;9.10;;;2.53;;
66272;SDS011;58450;52.150;4.466;2023-09-19T09:30:00;10.85;;;2.30;;
66272;SDS011;58450;52.150;4.466;2023-09-19T09:32:28;14.73;;;3.00;;
66272;SDS011;58450;52.150;4.466;2023-09-19T09:35:00;11.57;;;2.40;;
66272;SDS011;58450;52.150;4.466;2023-09-19T09:37:31;12.30;;;2.38;;
66272;SDS011;58450;52.150;4.466;2023-09-19T09:40:00;12.02;;;2.33;;
66272;SDS011;58450;52.150;4.466;2023-09-19T09:42:45;9.95;;;2.35;;
66272;SDS011;58450;52.150;4.466;2023-09-19T09:45:16;13.00;;;2.38;;
66272;SDS011;58450;52.150;4.466;2023-09-19T09:47:54;10.50;;;2.20;;
66272;SDS011;58450;52.150;4.466;2023-09-19T09:50:24;11.38;;;2.45;;
66272;SDS011;58450;52.150;4.466;2023-09-19T09:53:20;13.80;;;2.75;;
66272;SDS011;58450;52.150;4.466;2023-09-19T09:55:57;11.93;;;2.75;;
66272;SDS011;58450;52.150;4.466;2023-09-19T09:58:28;11.20;;;2.90;;
66272;SDS011;58450;52.150;4.466;2023-09-19T10:00:57;12.05;;;2.28;;
66272;SDS011;58450;52.150;4.466;2023-09-19T10:03:32;11.98;;;2.35;;
66272;SDS011;58450;52.150;4.466;2023-09-19T10:06:08;12.13;;;2.20;;
66272;SDS011;58450;52.150;4.466;2023-09-19T10:08:58;10.98;;;1.90;;
66272;SDS011;58450;52.150;4.466;2023-09-19T10:11:41;12.02;;;2.20;;
66272;SDS011;58450;52.150;4.466;2023-09-19T10:14:11;9.73;;;1.80;;
66272;SDS011;58450;52.150;4.466;2023-09-19T10:16:40;9.82;;;2.30;;
66272;SDS011;58450;52.150;4.466;2023-09-19T10:19:15;8.63;;;1.67;;
66272;SDS011;58450;52.150;4.466;2023-09-19T10:21:50;9.95;;;2.08;;
66272;SDS011;58450;52.150;4.466;2023-09-19T10:24:24;9.88;;;2.30;;
66272;SDS011;58450;52.150;4.466;2023-09-19T10:26:56;10.63;;;1.73;;
66272;SDS011;58450;52.150;4.466;2023-09-19T10:29:26;7.03;;;1.80;;
66272;SDS011;58450;52.150;4.466;2023-09-19T10:32:01;8.15;;;1.92;;
66272;SDS011;58450;52.150;4.466;2023-09-19T10:34:35;10.93;;;2.75;;
66272;SDS011;58450;52.150;4.466;2023-09-19T10:37:03;9.18;;;1.90;;
66272;SDS011;58450;52.150;4.466;2023-09-19T10:39:36;9.20;;;1.85;;
66272;SDS011;58450;52.150;4.466;2023-09-19T10:42:07;9.85;;;2.10;;
66272;SDS011;58450;52.150;4.466;2023-09-19T10:44:43;11.15;;;1.83;;
66272;SDS011;58450;52.150;4.466;2023-09-19T10:47:19;11.88;;;2.10;;
66272;SDS011;58450;52.150;4.466;2023-09-19T10:49:50;10.63;;;1.92;;
66272;SDS011;58450;52.150;4.466;2023-09-19T10:52:19;9.23;;;1.70;;
66272;SDS011;58450;52.150;4.466;2023-09-19T10:54:53;9.55;;;1.70;;
66272;SDS011;58450;52.150;4.466;2023-09-19T10:57:25;9.93;;;1.88;;
66272;SDS011;58450;52.150;4.466;2023-09-19T11:00:00;10.70;;;1.83;;
66272;SDS011;58450;52.150;4.466;2023-09-19T11:06:03;8.60;;;2.05;;
66272;SDS011;58450;52.150;4.466;2023-09-19T11:08:55;10.05;;;2.30;;
66272;SDS011;58450;52.150;4.466;2023-09-19T11:11:44;10.95;;;2.53;;
66272;SDS011;58450;52.150;4.466;2023-09-19T11:20:20;6.53;;;1.40;;
66272;SDS011;58450;52.150;4.466;2023-09-19T11:25:54;7.47;;;1.77;;
66272;SDS011;58450;52.150;4.466;2023-09-19T11:28:32;8.77;;;1.92;;
66272;SDS011;58450;52.150;4.466;2023-09-19T11:34:39;7.53;;;1.55;;
66272;SDS011;58450;52.150;4.466;2023-09-19T11:40:37;6.20;;;1.48;;
66272;SDS011;58450;52.150;4.466;2023-09-19T11:46:06;12.25;;;2.05;;
66272;SDS011;58450;52.150;4.466;2023-09-19T11:48:35;5.95;;;1.55;;
66272;SDS011;58450;52.150;4.466;2023-09-19T11:51:13;9.10;;;1.67;;
66272;SDS011;58450;52.150;4.466;2023-09-19T11:53:48;7.35;;;1.40;;
66272;SDS011;58450;52.150;4.466;2023-09-19T11:56:17;6.15;;;1.48;;
66272;SDS011;58450;52.150;4.466;2023-09-19T11:58:50;9.65;;;1.50;;
66272;SDS011;58450;52.150;4.466;2023-09-19T12:01:24;6.00;;;1.40;;
66272;SDS011;58450;52.150;4.466;2023-09-19T12:03:57;7.55;;;1.60;;
66272;SDS011;58450;52.150;4.466;2023-09-19T12:06:28;8.85;;;1.90;;
66272;SDS011;58450;52.150;4.466;2023-09-19T12:08:58;10.35;;;2.10;;
66272;SDS011;58450;52.150;4.466;2023-09-19T12:11:27;6.93;;;1.98;;
66272;SDS011;58450;52.150;4.466;2023-09-19T12:14:00;8.93;;;2.05;;
66272;SDS011;58450;52.150;4.466;2023-09-19T12:16:29;6.82;;;1.80;;
66272;SDS011;58450;52.150;4.466;2023-09-19T12:18:59;8.32;;;1.77;;
66272;SDS011;58450;52.150;4.466;2023-09-19T12:21:54;6.70;;;1.67;;
66272;SDS011;58450;52.150;4.466;2023-09-19T12:24:30;6.32;;;1.70;;
66272;SDS011;58450;52.150;4.466;2023-09-19T12:26:59;8.18;;;2.03;;
66272;SDS011;58450;52.150;4.466;2023-09-19T12:29:41;8.18;;;1.90;;
66272;SDS011;58450;52.150;4.466;2023-09-19T12:32:11;9.85;;;1.70;;
66272;SDS011;58450;52.150;4.466;2023-09-19T12:34:42;7.93;;;2.28;;
66272;SDS011;58450;52.150;4.466;2023-09-19T12:37:18;5.80;;;1.67;;
66272;SDS011;58450;52.150;4.466;2023-09-19T12:39:48;8.48;;;2.10;;
66272;SDS011;58450;52.150;4.466;2023-09-19T12:42:19;10.30;;;1.70;;
66272;SDS011;58450;52.150;4.466;2023-09-19T12:44:50;9.93;;;1.85;;
66272;SDS011;58450;52.150;4.466;2023-09-19T12:47:21;6.50;;;1.73;;
66272;SDS011;58450;52.150;4.466;2023-09-19T12:50:05;8.90;;;2.20;;
66272;SDS011;58450;52.150;4.466;2023-09-19T12:52:43;11.30;;;2.22;;
66272;SDS011;58450;52.150;4.466;2023-09-19T12:55:21;7.18;;;1.85;;
66272;SDS011;58450;52.150;4.466;2023-09-19T12:58:07;7.13;;;1.70;;
66272;SDS011;58450;52.150;4.466;2023-09-19T13:00:40;9.55;;;2.53;;
66272;SDS011;58450;52.150;4.466;2023-09-19T13:03:16;7.90;;;1.88;;
66272;SDS011;58450;52.150;4.466;2023-09-19T13:05:49;7.10;;;1.70;;
66272;SDS011;58450;52.150;4.466;2023-09-19T13:08:22;8.20;;;1.90;;
66272;SDS011;58450;52.150;4.466;2023-09-19T13:11:09;9.70;;;2.03;;
66272;SDS011;58450;52.150;4.466;2023-09-19T13:13:40;10.73;;;2.10;;
66272;SDS011;58450;52.150;4.466;2023-09-19T13:16:12;6.95;;;1.58;;
66272;SDS011;58450;52.150;4.466;2023-09-19T13:18:45;8.73;;;1.67;;
66272;SDS011;58450;52.150;4.466;2023-09-19T13:21:17;7.20;;;1.90;;
66272;SDS011;58450;52.150;4.466;2023-09-19T13:23:55;8.25;;;1.80;;
66272;SDS011;58450;52.150;4.466;2023-09-19T13:26:46;8.40;;;1.60;;
66272;SDS011;58450;52.150;4.466;2023-09-19T13:29:14;6.55;;;1.80;;
66272;SDS011;58450;52.150;4.466;2023-09-19T13:31:46;9.07;;;2.10;;
66272;SDS011;58450;52.150;4.466;2023-09-19T13:34:15;9.10;;;2.50;;
66272;SDS011;58450;52.150;4.466;2023-09-19T13:36:43;10.95;;;2.10;;
66272;SDS011;58450;52.150;4.466;2023-09-19T13:39:13;10.52;;;2.63;;
66272;SDS011;58450;52.150;4.466;2023-09-19T13:41:41;9.40;;;2.17;;
66272;SDS011;58450;52.150;4.466;2023-09-19T13:44:12;7.78;;;2.47;;
66272;SDS011;58450;52.150;4.466;2023-09-19T13:46:39;9.60;;;2.53;;
66272;SDS011;58450;52.150;4.466;2023-09-19T13:49:12;10.18;;;2.80;;
66272;SDS011;58450;52.150;4.466;2023-09-19T13:51:40;8.18;;;2.78;;
66272;SDS011;58450;52.150;4.466;2023-09-19T13:54:09;13.77;;;3.00;;
66272;SDS011;58450;52.150;4.466;2023-09-19T13:56:38;10.50;;;2.60;;
66272;SDS011;58450;52.150;4.466;2023-09-19T13:59:05;11.90;;;2.63;;
66272;SDS011;58450;52.150;4.466;2023-09-19T14:01:33;10.70;;;3.10;;
66272;SDS011;58450;52.150;4.466;2023-09-19T14:04:00;10.43;;;2.95;;
66272;SDS011;58450;52.150;4.466;2023-09-19T14:06:29;12.25;;;3.65;;
66272;SDS011;58450;52.150;4.466;2023-09-19T14:08:57;16.65;;;3.38;;
66272;SDS011;58450;52.150;4.466;2023-09-19T14:11:27;14.55;;;3.25;;
66272;SDS011;58450;52.150;4.466;2023-09-19T14:13:54;10.63;;;3.28;;
66272;SDS011;58450;52.150;4.466;2023-09-19T14:16:22;18.40;;;3.20;;
66272;SDS011;58450;52.150;4.466;2023-09-19T14:18:50;13.10;;;3.15;;
66272;SDS011;58450;52.150;4.466;2023-09-19T14:21:18;14.85;;;3.08;;
66272;SDS011;58450;52.150;4.466;2023-09-19T14:23:46;11.75;;;2.63;;
66272;SDS011;58450;52.150;4.466;2023-09-19T14:26:15;10.10;;;2.40;;
66272;SDS011;58450;52.150;4.466;2023-09-19T14:28:44;13.23;;;2.85;;
66272;SDS011;58450;52.150;4.466;2023-09-19T14:31:11;8.45;;;2.45;;
66272;SDS011;58450;52.150;4.466;2023-09-19T14:33:40;10.00;;;2.50;;
66272;SDS011;58450;52.150;4.466;2023-09-19T14:36:09;11.55;;;2.25;;
66272;SDS011;58450;52.150;4.466;2023-09-19T14:38:37;9.70;;;2.35;;
66272;SDS011;58450;52.150;4.466;2023-09-19T14:41:06;8.73;;;2.53;;
66272;SDS011;58450;52.150;4.466;2023-09-19T14:43:34;8.30;;;2.28;;
66272;SDS011;58450;52.150;4.466;2023-09-19T14:46:02;8.23;;;2.50;;
66272;SDS011;58450;52.150;4.466;2023-09-19T14:48:30;12.38;;;3.15;;
66272;SDS011;58450;52.150;4.466;2023-09-19T14:51:01;10.35;;;2.60;;
66272;SDS011;58450;52.150;4.466;2023-09-19T14:53:29;13.57;;;2.88;;
66272;SDS011;58450;52.150;4.466;2023-09-19T14:55:59;13.05;;;2.85;;
66272;SDS011;58450;52.150;4.466;2023-09-19T14:58:30;12.32;;;3.20;;
66272;SDS011;58450;52.150;4.466;2023-09-19T15:01:08;9.93;;;2.72;;
66272;SDS011;58450;52.150;4.466;2023-09-19T15:03:38;13.68;;;3.03;;
66272;SDS011;58450;52.150;4.466;2023-09-19T15:06:08;11.60;;;3.10;;
66272;SDS011;58450;52.150;4.466;2023-09-19T15:08:40;13.00;;;3.33;;
66272;SDS011;58450;52.150;4.466;2023-09-19T15:11:11;13.02;;;3.63;;
66272;SDS011;58450;52.150;4.466;2023-09-19T15:13:40;9.68;;;2.72;;
66272;SDS011;58450;52.150;4.466;2023-09-19T15:16:08;12.13;;;3.00;;
66272;SDS011;58450;52.150;4.466;2023-09-19T15:18:38;12.13;;;3.10;;
66272;SDS011;58450;52.150;4.466;2023-09-19T15:21:08;12.43;;;3.28;;
66272;SDS011;58450;52.150;4.466;2023-09-19T15:23:38;12.98;;;3.25;;
66272;SDS011;58450;52.150;4.466;2023-09-19T15:26:08;12.45;;;3.30;;
66272;SDS011;58450;52.150;4.466;2023-09-19T15:28:38;11.27;;;3.10;;
66272;SDS011;58450;52.150;4.466;2023-09-19T15:31:08;16.17;;;3.88;;
66272;SDS011;58450;52.150;4.466;2023-09-19T15:33:37;15.98;;;3.65;;